Disclaimer

Please do not use the information listed here in-flight or in-navigation, as they are not provided to us by the airports but are provided by volunteers, so they might be outdated.

Search


Regions


Airport information page

Radio informations:
DELHI TWR - 119.3 MHz
DELHI GND - 118.1 MHz
Automatic Terminal Information Service (ATIS) - 126.4 MHz
DELHI APP - 127.9 MHz

Airport informations:
Latitude: 28° 33' 59.40" N
Longitude: 077° 06' 11.12" E
Elevation: 777 feet - 237 meters
Operating hours: Remarks
Operating agency: Civil government, landing fees and diplomatic clearance may be required
Timezone: UTC+5:30
Fuel: Jet B, Wide cut turbine fuel, Without icing inhibitor.

Jet A1, without icing nhibitor.

100/130 MIL Spec, low lead, aviation gasoline (BLUE)

Runway information:
09/27 - 9229 x 150 feet< - >2813 x 46 meters
10/28 - 12500 x 150 feet< - >3810 x 46 meters

Recent METARs:
VIDP 202330Z 24003KT 0400 R28/1900 R29/1700 FG NSC 16/14 Q1016 BECMG 0350 FG
VIDP 210000Z 25003KT 0350 R28/2000 R29/1900 FG NSC 16/14 Q1017 NOSIG
VIDP 210030Z 25003KT 0350 R28/2000 R29/0800 FG NSC 16/14 Q1017 NOSIG

Airport on the map: